Time;durP1;ratioP1;P1;durP2;ratioP2;P2;SDS_P1;SDS_P2;PMS_P1;PMS_P2;Temp;Humidity;BMP_temperature;BMP_pressure;BME280_temperature;BME280_humidity;BME280_pressure;Samples;Min_cycle;Max_cycle;Signal;HPM_P1;HPM_P2
2020/12/17 00:00:04;;;;;;;9.80;5.13;;;10.20;99.90;;;;;;4993472;28;20254;-83
2020/12/17 00:02:31;;;;;;;21.33;5.83;;;10.30;99.90;;;;;;4993528;28;20237;-84
2020/12/17 00:04:57;;;;;;;20.97;6.17;;;10.30;99.90;;;;;;4993316;28;20233;-74
2020/12/17 00:07:24;;;;;;;18.17;6.80;;;10.30;99.90;;;;;;4993379;28;20674;-74
2020/12/17 00:09:50;;;;;;;16.13;6.87;;;10.40;99.90;;;;;;4993687;28;20241;-74
2020/12/17 00:12:17;;;;;;;10.47;7.23;;;10.40;99.90;;;;;;4993427;28;20209;-92
2020/12/17 00:14:44;;;;;;;16.47;7.87;;;10.30;99.90;;;;;;4993135;28;20669;-92
2020/12/17 00:17:10;;;;;;;18.70;9.73;;;10.30;99.90;;;;;;4993033;28;20244;-75
2020/12/17 00:19:37;;;;;;;16.73;9.07;;;10.30;99.90;;;;;;4993017;28;20247;-91
2020/12/17 00:22:03;;;;;;;15.80;9.47;;;10.30;99.90;;;;;;4992806;28;20213;-76
2020/12/17 00:24:30;;;;;;;18.97;10.43;;;10.30;99.90;;;;;;4993537;28;20248;-77
2020/12/17 00:26:56;;;;;;;21.73;11.53;;;10.30;99.90;;;;;;4993067;28;20209;-75
2020/12/17 00:29:23;;;;;;;21.23;11.87;;;10.30;99.90;;;;;;4993195;28;20205;-89
2020/12/17 00:31:52;;;;;;;19.80;10.40;;;10.30;99.90;;;;;;4993291;28;20240;-78
2020/12/17 00:34:18;;;;;;;17.33;10.93;;;10.30;99.90;;;;;;4993439;28;20756;-93
2020/12/17 00:36:45;;;;;;;17.47;11.63;;;10.20;99.90;;;;;;4992953;28;20249;-93
2020/12/17 00:39:11;;;;;;;16.53;11.20;;;10.20;99.90;;;;;;4992843;28;20662;-85
2020/12/17 00:41:38;;;;;;;17.50;12.17;;;10.10;99.90;;;;;;4992975;28;20213;-76
2020/12/17 00:44:04;;;;;;;20.97;12.53;;;10.10;99.90;;;;;;4992173;28;20212;-86
2020/12/17 00:46:31;;;;;;;19.87;11.33;;;10.20;99.90;;;;;;4992835;28;20272;-87
2020/12/17 00:48:58;;;;;;;22.43;13.30;;;10.20;99.90;;;;;;4992337;28;20236;-88
2020/12/17 00:51:24;;;;;;;23.43;15.33;;;10.10;99.90;;;;;;4992810;28;20715;-89
2020/12/17 00:53:51;;;;;;;17.43;13.67;;;10.00;99.90;;;;;;4992804;28;20208;-75
2020/12/17 00:56:17;;;;;;;18.27;13.50;;;10.00;99.90;;;;;;4992349;28;20208;-85
2020/12/17 00:58:44;;;;;;;19.37;13.77;;;10.00;99.90;;;;;;4992995;28;20268;-75
2020/12/17 01:01:10;;;;;;;22.07;14.00;;;9.90;99.90;;;;;;4992356;28;20233;-76
2020/12/17 01:03:38;;;;;;;18.23;15.43;;;10.00;99.90;;;;;;4992757;28;20283;-89
2020/12/17 01:06:08;;;;;;;17.67;14.03;;;9.90;99.90;;;;;;4991815;28;20634;-78
2020/12/17 01:08:35;;;;;;;16.77;13.80;;;9.90;99.90;;;;;;4992506;28;20205;-75
2020/12/17 01:11:02;;;;;;;17.30;12.80;;;9.90;99.90;;;;;;4991378;28;20255;-75
2020/12/17 01:13:29;;;;;;;15.87;11.83;;;10.00;99.90;;;;;;4992685;28;20205;-75
2020/12/17 01:15:56;;;;;;;22.17;13.90;;;10.00;99.90;;;;;;4992127;28;20251;-76
2020/12/17 01:18:22;;;;;;;18.90;14.17;;;10.00;99.90;;;;;;4992467;28;20204;-78
2020/12/17 01:20:49;;;;;;;19.27;12.90;;;10.00;99.90;;;;;;4992622;28;20241;-77
2020/12/17 01:23:16;;;;;;;16.17;12.83;;;10.10;99.90;;;;;;4992048;28;20217;-80
2020/12/17 01:25:42;;;;;;;18.67;13.50;;;10.10;99.90;;;;;;4992751;28;20237;-88
2020/12/17 01:28:12;;;;;;;21.20;14.10;;;10.10;99.90;;;;;;4991880;28;20704;-78
2020/12/17 01:30:40;;;;;;;14.20;11.30;;;10.10;99.90;;;;;;4992967;28;20212;-78
2020/12/17 01:33:06;;;;;;;15.07;10.40;;;10.10;99.90;;;;;;4991991;28;20213;-78
2020/12/17 01:35:33;;;;;;;15.67;9.60;;;10.10;99.90;;;;;;4991851;28;20216;-92
2020/12/17 01:38:00;;;;;;;15.50;9.80;;;10.10;99.90;;;;;;4991265;28;20267;-77
2020/12/17 01:40:27;;;;;;;15.47;9.80;;;10.10;99.90;;;;;;4991836;28;20205;-80
2020/12/17 01:42:53;;;;;;;12.53;9.17;;;10.10;99.90;;;;;;4991739;28;20212;-78
2020/12/17 01:45:20;;;;;;;14.03;9.70;;;10.10;99.90;;;;;;4992354;28;20276;-78
2020/12/17 01:47:47;;;;;;;15.77;10.17;;;10.10;99.90;;;;;;4993183;28;20692;-94
2020/12/17 01:50:15;;;;;;;13.67;10.40;;;10.00;99.90;;;;;;4992527;28;20675;-76
2020/12/17 01:52:41;;;;;;;14.83;10.47;;;9.90;99.90;;;;;;4993033;28;20213;-78
2020/12/17 01:55:08;;;;;;;25.67;12.40;;;9.90;99.90;;;;;;4993725;28;20212;-77
2020/12/17 01:57:36;;;;;;;20.60;10.97;;;9.90;99.90;;;;;;4994387;28;20205;-94
2020/12/17 02:00:07;;;;;;;14.93;11.63;;;9.90;99.90;;;;;;4991738;28;20215;-92
2020/12/17 02:02:34;;;;;;;13.83;9.97;;;10.00;99.90;;;;;;4992772;28;20201;-76
2020/12/17 02:05:04;;;;;;;23.03;11.20;;;9.90;99.90;;;;;;4991898;28;20269;-81
2020/12/17 02:07:31;;;;;;;16.73;11.47;;;9.80;99.90;;;;;;4991494;28;20283;-78
2020/12/17 02:09:58;;;;;;;21.00;11.70;;;9.80;99.90;;;;;;4991220;28;20685;-82
2020/12/17 02:12:44;;;;;;;17.90;10.80;;;9.90;99.90;;;;;;4991748;28;20318;-87
2020/12/17 02:15:12;;;;;;;18.57;11.33;;;9.90;99.90;;;;;;4991216;28;20286;-78
2020/12/17 02:17:38;;;;;;;21.57;13.57;;;9.80;99.90;;;;;;4991175;28;20647;-89
2020/12/17 02:20:06;;;;;;;18.00;12.63;;;9.70;99.90;;;;;;4989246;28;20208;-74
2020/12/17 02:22:33;;;;;;;16.07;12.63;;;9.70;99.90;;;;;;4991175;28;20245;-88
2020/12/17 02:25:01;;;;;;;21.10;13.23;;;9.70;99.90;;;;;;4991173;28;20213;-78
2020/12/17 02:27:27;;;;;;;16.03;12.77;;;9.60;99.90;;;;;;4991049;28;20577;-73
2020/12/17 02:29:54;;;;;;;19.90;12.03;;;9.50;99.90;;;;;;4991649;28;20229;-95
2020/12/17 02:32:20;;;;;;;15.23;12.33;;;9.40;99.90;;;;;;4992298;28;20217;-74
2020/12/17 02:34:47;;;;;;;18.67;14.83;;;9.30;99.90;;;;;;4992685;28;20209;-73
2020/12/17 02:37:14;;;;;;;19.47;14.93;;;9.30;99.90;;;;;;4992556;28;20259;-94
2020/12/17 02:39:41;;;;;;;18.30;14.20;;;9.20;99.90;;;;;;4995918;28;20589;-74
2020/12/17 02:42:08;;;;;;;16.73;13.80;;;9.20;99.90;;;;;;4995690;28;20204;-94
2020/12/17 02:44:35;;;;;;;15.50;12.27;;;9.20;99.90;;;;;;4995750;28;20205;-85
2020/12/17 02:47:02;;;;;;;14.70;13.20;;;9.10;99.90;;;;;;4997000;28;20259;-75
2020/12/17 02:49:28;;;;;;;20.50;14.67;;;9.00;99.90;;;;;;4994537;28;20209;-95
2020/12/17 02:51:55;;;;;;;15.20;12.27;;;9.00;99.90;;;;;;4999322;28;20224;-72
2020/12/17 02:54:22;;;;;;;18.63;13.83;;;8.90;99.90;;;;;;4994745;28;20228;-75
2020/12/17 02:56:48;;;;;;;18.67;13.10;;;8.90;99.90;;;;;;4993753;28;20666;-91
2020/12/17 02:59:15;;;;;;;15.87;12.47;;;8.80;99.90;;;;;;4994470;28;20201;-74
2020/12/17 03:01:42;;;;;;;20.30;13.47;;;8.80;99.90;;;;;;4994882;28;20810;-89
2020/12/17 03:04:08;;;;;;;19.17;13.33;;;8.50;99.90;;;;;;4994438;28;20267;-88
2020/12/17 03:06:35;;;;;;;18.77;12.47;;;8.40;99.90;;;;;;4994866;28;20275;-74
2020/12/17 03:09:02;;;;;;;16.27;12.30;;;8.50;99.90;;;;;;4993902;28;20637;-74
2020/12/17 03:11:29;;;;;;;15.40;12.50;;;8.50;99.90;;;;;;4994518;28;20212;-91
2020/12/17 03:13:55;;;;;;;15.47;12.10;;;8.50;99.90;;;;;;4994184;28;20259;-74
2020/12/17 03:16:23;;;;;;;15.67;11.47;;;8.40;99.90;;;;;;4995229;28;20231;-74
2020/12/17 03:18:49;;;;;;;18.80;12.70;;;8.30;99.90;;;;;;4995204;28;20205;-73
2020/12/17 03:21:15;;;;;;;19.27;11.87;;;8.00;99.90;;;;;;4994238;28;20259;-90
2020/12/17 03:23:42;;;;;;;15.17;11.90;;;7.80;99.90;;;;;;4994551;28;20220;-74
2020/12/17 03:26:09;;;;;;;15.83;11.07;;;7.90;99.90;;;;;;4993759;28;20224;-87
2020/12/17 03:28:35;;;;;;;18.23;12.57;;;7.90;99.90;;;;;;4994336;28;20247;-75
2020/12/17 03:31:02;;;;;;;12.90;10.57;;;7.60;99.90;;;;;;4993761;28;20268;-75
2020/12/17 03:33:29;;;;;;;14.00;11.40;;;7.60;99.90;;;;;;4994580;28;20241;-88
2020/12/17 03:35:56;;;;;;;17.83;12.70;;;7.60;99.90;;;;;;4993639;28;20681;-76
2020/12/17 03:38:22;;;;;;;12.47;11.20;;;7.70;99.90;;;;;;4994207;28;20739;-76
2020/12/17 03:40:48;;;;;;;13.93;11.70;;;8.00;99.90;;;;;;4994279;28;20209;-75
2020/12/17 03:43:15;;;;;;;14.93;11.90;;;8.10;99.90;;;;;;4993791;28;20682;-78
2020/12/17 03:45:41;;;;;;;16.20;11.97;;;8.10;99.90;;;;;;4994207;28;20267;-76
2020/12/17 03:48:08;;;;;;;16.50;12.37;;;8.20;99.90;;;;;;4993585;28;20255;-77
2020/12/17 03:50:35;;;;;;;19.63;12.60;;;8.20;99.90;;;;;;4993977;28;20205;-85
2020/12/17 03:53:01;;;;;;;21.33;11.80;;;8.30;99.90;;;;;;4993085;28;20688;-82
2020/12/17 03:55:28;;;;;;;16.07;11.97;;;8.40;99.90;;;;;;4993683;28;20211;-84
2020/12/17 03:57:55;;;;;;;15.90;12.10;;;8.40;99.90;;;;;;4993955;28;20247;-78
2020/12/17 04:00:21;;;;;;;15.27;11.13;;;8.40;99.90;;;;;;4994015;28;20220;-77
2020/12/17 04:02:48;;;;;;;17.43;10.97;;;8.30;99.90;;;;;;4994325;28;20240;-88
2020/12/17 04:05:14;;;;;;;17.73;12.33;;;8.30;99.90;;;;;;4993191;28;20323;-92
2020/12/17 04:07:42;;;;;;;19.13;12.90;;;8.30;99.90;;;;;;4993148;28;20212;-78
2020/12/17 04:10:08;;;;;;;13.00;11.10;;;8.30;99.90;;;;;;4993267;28;20209;-74
2020/12/17 04:12:34;;;;;;;14.40;11.23;;;8.30;99.90;;;;;;4993742;28;20201;-94
2020/12/17 04:15:01;;;;;;;15.07;11.73;;;8.10;99.90;;;;;;4998702;28;20268;-78
2020/12/17 04:17:27;;;;;;;14.07;12.60;;;8.00;99.90;;;;;;4993353;28;20201;-78
2020/12/17 04:19:54;;;;;;;20.10;12.57;;;8.00;99.90;;;;;;4993301;28;20662;-81
2020/12/17 04:22:20;;;;;;;13.20;11.37;;;7.80;99.90;;;;;;4993447;28;20220;-76
2020/12/17 04:24:48;;;;;;;18.67;10.97;;;7.70;99.90;;;;;;4993660;28;20205;-85
2020/12/17 04:27:15;;;;;;;14.67;11.70;;;7.50;99.90;;;;;;4992547;28;20295;-79
2020/12/17 04:29:41;;;;;;;19.80;12.37;;;7.40;99.90;;;;;;4992933;28;20208;-80
2020/12/17 04:32:08;;;;;;;13.60;10.30;;;7.50;99.90;;;;;;4992526;28;20209;-83
2020/12/17 04:34:34;;;;;;;15.27;11.43;;;7.60;99.90;;;;;;4992833;28;20239;-76
2020/12/17 04:37:00;;;;;;;17.67;11.13;;;7.70;99.90;;;;;;4992507;28;20248;-74
2020/12/17 04:39:27;;;;;;;13.60;12.10;;;7.80;99.90;;;;;;4992656;28;20267;-73
2020/12/17 04:41:56;;;;;;;17.20;10.37;;;7.70;99.90;;;;;;4993061;28;20236;-74
2020/12/17 04:44:22;;;;;;;12.77;11.37;;;7.80;99.90;;;;;;4992936;28;20205;-74
2020/12/17 04:46:55;;;;;;;16.77;11.20;;;7.80;99.90;;;;;;4992667;28;20276;-74
2020/12/17 04:49:25;;;;;;;16.97;11.03;;;7.80;99.90;;;;;;4992639;28;20213;-74
2020/12/17 04:51:56;;;;;;;17.47;12.57;;;7.90;99.90;;;;;;4992282;28;20744;-74
2020/12/17 04:54:23;;;;;;;14.47;10.30;;;7.90;99.90;;;;;;4992764;28;20236;-75
2020/12/17 04:56:59;;;;;;;13.20;11.20;;;7.80;99.90;;;;;;4992680;28;20213;-75
2020/12/17 04:59:40;;;;;;;16.50;11.10;;;7.80;99.90;;;;;;4992667;28;20211;-74
2020/12/17 05:02:07;;;;;;;14.03;10.73;;;7.80;99.90;;;;;;4991677;28;20228;-74
2020/12/17 05:04:38;;;;;;;13.43;11.10;;;7.50;99.90;;;;;;4992514;28;20212;-82
2020/12/17 05:07:07;;;;;;;14.10;11.63;;;7.60;99.90;;;;;;4991405;28;20256;-74
2020/12/17 05:09:34;;;;;;;14.13;11.83;;;7.50;99.90;;;;;;4992272;28;20688;-82
2020/12/17 05:12:02;;;;;;;13.87;11.57;;;7.50;99.90;;;;;;4991605;28;20656;-76
2020/12/17 05:14:29;;;;;;;13.67;10.30;;;7.60;99.90;;;;;;4992221;28;20212;-78
2020/12/17 05:16:56;;;;;;;17.63;11.73;;;7.50;99.90;;;;;;4991204;28;20771;-74
2020/12/17 05:19:23;;;;;;;16.77;12.43;;;7.30;99.90;;;;;;4991668;28;20214;-74
2020/12/17 05:21:50;;;;;;;17.80;11.17;;;7.20;99.90;;;;;;4992544;28;20216;-76
2020/12/17 05:24:16;;;;;;;13.73;11.30;;;7.40;99.90;;;;;;4978208;28;20213;-82
2020/12/17 05:26:44;;;;;;;16.20;11.07;;;7.60;99.90;;;;;;4991957;28;20693;-81
2020/12/17 05:29:12;;;;;;;15.40;10.57;;;7.70;99.90;;;;;;4991153;28;20213;-74
2020/12/17 05:31:38;;;;;;;15.10;12.40;;;7.60;99.90;;;;;;4991892;28;20235;-81
2020/12/17 05:34:05;;;;;;;16.17;11.03;;;7.70;99.90;;;;;;4991547;28;20647;-75
2020/12/17 05:36:34;;;;;;;16.90;11.73;;;7.70;99.90;;;;;;4991683;28;20201;-74
2020/12/17 05:39:12;;;;;;;17.90;11.83;;;7.70;99.90;;;;;;4991308;28;20241;-74
2020/12/17 05:41:39;;;;;;;23.27;11.40;;;7.60;99.90;;;;;;4991478;28;20759;-74
2020/12/17 05:44:10;;;;;;;16.87;11.60;;;7.70;99.90;;;;;;4991314;28;20236;-83
2020/12/17 05:46:39;;;;;;;18.80;10.77;;;7.70;99.90;;;;;;4991146;28;20302;-83
2020/12/17 05:49:17;;;;;;;16.83;11.93;;;7.70;99.90;;;;;;4991489;28;20205;-75
2020/12/17 05:51:45;;;;;;;18.43;12.53;;;7.60;99.90;;;;;;4991575;28;20634;-83
2020/12/17 05:54:20;;;;;;;24.07;14.20;;;7.70;99.90;;;;;;4990994;28;20303;-82
2020/12/17 05:56:48;;;;;;;18.27;11.53;;;7.70;99.90;;;;;;4991839;28;20204;-82
2020/12/17 05:59:22;;;;;;;20.90;12.20;;;7.80;99.90;;;;;;4991612;28;20216;-75
2020/12/17 06:01:50;;;;;;;23.27;12.20;;;7.70;99.90;;;;;;4990603;28;20200;-88
2020/12/17 06:04:16;;;;;;;21.00;12.67;;;7.70;99.90;;;;;;4991414;28;20572;-74
2020/12/17 06:06:46;;;;;;;24.17;12.03;;;7.60;99.90;;;;;;4991419;28;20310;-73
2020/12/17 06:09:20;;;;;;;19.23;12.60;;;7.50;99.90;;;;;;4990707;28;20299;-75
2020/12/17 06:11:48;;;;;;;21.13;13.70;;;7.30;99.90;;;;;;4992094;28;20239;-83
2020/12/17 06:14:15;;;;;;;22.47;14.63;;;7.30;99.90;;;;;;4991824;28;20224;-89
2020/12/17 06:16:43;;;;;;;22.97;12.37;;;7.20;99.90;;;;;;4991401;28;20639;-84
2020/12/17 06:19:15;;;;;;;19.90;12.67;;;7.20;99.90;;;;;;4991369;28;20259;-89
2020/12/17 06:21:41;;;;;;;24.10;15.87;;;7.20;99.90;;;;;;4991444;28;20576;-87
2020/12/17 06:24:08;;;;;;;24.40;14.23;;;7.20;99.90;;;;;;4990754;28;20219;-74
2020/12/17 06:26:40;;;;;;;25.47;13.80;;;7.10;99.90;;;;;;4991799;28;20236;-84
2020/12/17 06:29:17;;;;;;;25.30;13.90;;;7.10;99.90;;;;;;4992174;28;20209;-74
2020/12/17 06:31:53;;;;;;;20.60;13.50;;;7.20;99.90;;;;;;4995145;28;20271;-73
2020/12/17 06:34:21;;;;;;;16.77;13.03;;;7.20;99.90;;;;;;4994980;28;20204;-75
2020/12/17 06:36:55;;;;;;;18.63;12.43;;;7.10;99.90;;;;;;4995255;28;20244;-74
2020/12/17 06:39:22;;;;;;;25.40;12.77;;;7.10;99.90;;;;;;4995451;28;20297;-73
2020/12/17 06:41:48;;;;;;;24.43;12.83;;;7.10;99.90;;;;;;4995428;28;20205;-74
2020/12/17 06:44:29;;;;;;;20.93;12.67;;;7.30;99.90;;;;;;4994376;28;20580;-82
2020/12/17 06:46:56;;;;;;;22.90;12.87;;;7.40;99.90;;;;;;4994921;28;20318;-76
2020/12/17 06:49:28;;;;;;;18.73;12.63;;;7.00;99.90;;;;;;4995636;28;20212;-83
2020/12/17 06:52:06;;;;;;;18.27;13.13;;;6.90;99.90;;;;;;4995025;28;20245;-78
2020/12/17 06:54:40;;;;;;;21.87;12.23;;;7.00;99.90;;;;;;4995281;28;20208;-85
2020/12/17 06:57:09;;;;;;;19.73;13.50;;;7.20;99.90;;;;;;4995191;28;20208;-83
2020/12/17 06:59:37;;;;;;;21.57;11.83;;;7.30;99.90;;;;;;4995294;28;20251;-82
2020/12/17 07:02:05;;;;;;;21.07;12.23;;;7.40;99.90;;;;;;4994527;28;20236;-83
2020/12/17 07:04:39;;;;;;;20.47;11.90;;;7.20;99.90;;;;;;4995379;28;20216;-74
2020/12/17 07:07:18;;;;;;;23.00;13.33;;;7.30;99.90;;;;;;4994194;28;20267;-83
2020/12/17 07:09:46;;;;;;;24.07;12.87;;;7.40;99.90;;;;;;4994683;28;20208;-83
2020/12/17 07:12:14;;;;;;;29.57;12.93;;;7.40;99.90;;;;;;4994440;28;20205;-86
2020/12/17 07:14:41;;;;;;;26.23;13.07;;;7.40;99.90;;;;;;4994744;28;20211;-82
2020/12/17 07:17:09;;;;;;;27.60;12.17;;;7.40;99.90;;;;;;4994111;28;20209;-80
2020/12/17 07:19:43;;;;;;;27.73;14.23;;;7.50;99.90;;;;;;4994507;28;20237;-76
2020/12/17 07:22:12;;;;;;;23.00;12.23;;;7.50;99.90;;;;;;4994283;28;20209;-83
2020/12/17 07:24:40;;;;;;;26.93;13.67;;;7.40;99.90;;;;;;4994322;28;20212;-83
2020/12/17 07:27:10;;;;;;;22.90;13.77;;;7.40;99.90;;;;;;4993853;28;20322;-79
2020/12/17 07:29:50;;;;;;;25.73;13.60;;;7.50;99.90;;;;;;4994045;28;20268;-76
2020/12/17 07:32:28;;;;;;;26.13;14.03;;;7.40;99.90;;;;;;4990129;28;20204;-82
2020/12/17 07:34:57;;;;;;;30.77;16.03;;;7.40;99.90;;;;;;4993105;28;20220;-78
2020/12/17 07:37:41;;;;;;;30.87;14.63;;;7.40;99.90;;;;;;4994323;28;20213;-81
2020/12/17 07:40:21;;;;;;;25.37;12.87;;;7.50;99.90;;;;;;4989979;28;20232;-76
2020/12/17 07:43:06;;;;;;;27.47;13.93;;;7.60;99.90;;;;;;4992879;28;20244;-79
2020/12/17 07:45:37;;;;;;;39.00;16.87;;;7.60;99.90;;;;;;4993657;28;20350;-80
2020/12/17 07:48:24;;;;;;;29.70;16.03;;;7.70;99.90;;;;;;4993379;28;20215;-77
2020/12/17 07:50:51;;;;;;;31.37;15.80;;;7.70;99.90;;;;;;4993895;28;20219;-79
2020/12/17 07:53:23;;;;;;;32.43;16.33;;;7.80;99.90;;;;;;4993247;28;20751;-80
2020/12/17 07:55:51;;;;;;;35.20;19.03;;;7.90;99.90;;;;;;4993996;28;20213;-83
2020/12/17 07:58:17;;;;;;;37.07;17.83;;;7.90;99.90;;;;;;4992945;28;20683;-82
2020/12/17 08:00:44;;;;;;;39.60;18.53;;;7.70;99.90;;;;;;4993677;28;20206;-78
2020/12/17 08:03:10;;;;;;;44.47;17.40;;;7.80;99.90;;;;;;4993257;28;20632;-80
2020/12/17 08:05:37;;;;;;;47.33;19.00;;;7.70;99.90;;;;;;4986642;28;20252;-82
2020/12/17 08:08:04;;;;;;;37.80;19.07;;;8.00;99.90;;;;;;4991765;28;20217;-80
2020/12/17 08:10:37;;;;;;;44.87;18.33;;;8.00;99.90;;;;;;4992235;28;20206;-79
2020/12/17 08:13:03;;;;;;;58.53;22.67;;;8.00;99.90;;;;;;4991419;28;20228;-83
2020/12/17 08:15:30;;;;;;;40.97;19.80;;;7.90;99.90;;;;;;4993347;28;20304;-78
2020/12/17 08:17:57;;;;;;;43.27;18.00;;;7.80;99.90;;;;;;4993238;28;20295;-76
2020/12/17 08:20:25;;;;;;;36.83;17.83;;;7.80;99.90;;;;;;4992684;28;20236;-82
2020/12/17 08:22:52;;;;;;;38.80;18.43;;;7.60;99.90;;;;;;4993639;28;20311;-78
2020/12/17 08:25:22;;;;;;;41.53;19.33;;;7.70;99.90;;;;;;4990904;28;20213;-78
2020/12/17 08:27:52;;;;;;;36.93;18.10;;;8.00;99.90;;;;;;4993379;28;20216;-77
2020/12/17 08:30:20;;;;;;;30.43;18.47;;;8.20;99.90;;;;;;4990954;28;20869;-80
2020/12/17 08:32:49;;;;;;;41.27;18.27;;;7.80;99.90;;;;;;4988809;28;20217;-82
2020/12/17 08:35:21;;;;;;;52.47;20.80;;;7.80;99.90;;;;;;4992730;28;20213;-82
2020/12/17 08:37:49;;;;;;;39.80;20.07;;;7.80;99.90;;;;;;4990819;28;20212;-80
2020/12/17 08:40:21;;;;;;;46.13;21.80;;;7.80;99.90;;;;;;4991405;28;20236;-82
2020/12/17 08:42:54;;;;;;;49.20;21.10;;;7.80;99.90;;;;;;4991978;28;20689;-81
2020/12/17 08:45:24;;;;;;;46.00;21.03;;;7.90;99.90;;;;;;4982375;28;20204;-81
2020/12/17 08:47:56;;;;;;;48.90;21.07;;;8.30;99.90;;;;;;4992579;28;20208;-81
2020/12/17 08:50:23;;;;;;;45.37;19.83;;;8.50;99.90;;;;;;4992919;28;20212;-83
2020/12/17 08:52:50;;;;;;;42.13;22.53;;;8.50;99.90;;;;;;4991416;28;20213;-83
2020/12/17 08:55:17;;;;;;;53.53;20.37;;;8.60;99.90;;;;;;4991425;28;20205;-82
2020/12/17 08:57:45;;;;;;;44.67;20.30;;;8.50;99.90;;;;;;4992322;28;20213;-82
2020/12/17 09:00:19;;;;;;;47.03;20.20;;;8.70;99.90;;;;;;4991492;28;20300;-79
2020/12/17 09:02:45;;;;;;;40.67;20.97;;;8.80;99.90;;;;;;4992359;28;20250;-80
2020/12/17 09:05:13;;;;;;;48.40;21.83;;;8.70;99.90;;;;;;4988607;28;20217;-82
2020/12/17 09:07:46;;;;;;;46.50;20.97;;;8.60;99.90;;;;;;4990862;28;20343;-78
2020/12/17 09:10:14;;;;;;;42.83;21.33;;;8.60;99.90;;;;;;4990645;28;20288;-80
2020/12/17 09:12:40;;;;;;;46.80;22.40;;;8.60;99.90;;;;;;4992420;28;20240;-81
2020/12/17 09:15:08;;;;;;;54.33;23.90;;;8.60;99.90;;;;;;4991542;28;20308;-82
2020/12/17 09:17:36;;;;;;;38.40;19.80;;;8.60;99.90;;;;;;4989924;28;20209;-81
2020/12/17 09:20:14;;;;;;;43.90;19.73;;;8.70;99.90;;;;;;4990987;28;20267;-78
2020/12/17 09:22:41;;;;;;;50.67;21.87;;;8.60;99.90;;;;;;4985843;28;20217;-79
2020/12/17 09:25:08;;;;;;;38.07;19.37;;;8.80;99.90;;;;;;4986941;28;20698;-78
2020/12/17 09:27:36;;;;;;;43.20;20.33;;;9.10;99.90;;;;;;4990466;28;20233;-80
2020/12/17 09:30:14;;;;;;;34.70;20.43;;;8.80;99.90;;;;;;4991314;28;20215;-82
2020/12/17 09:32:50;;;;;;;59.50;23.13;;;8.70;99.90;;;;;;4990167;28;20209;-81
2020/12/17 09:35:17;;;;;;;46.67;22.03;;;8.80;99.90;;;;;;4991251;28;20240;-82
2020/12/17 09:37:57;;;;;;;54.63;22.00;;;9.00;99.90;;;;;;4989809;28;20244;-81
2020/12/17 09:40:24;;;;;;;35.03;20.90;;;8.80;99.90;;;;;;4990005;28;20200;-77
2020/12/17 09:43:03;;;;;;;50.03;22.87;;;9.00;99.90;;;;;;4991981;28;20213;-85
2020/12/17 09:45:33;;;;;;;40.23;20.47;;;9.40;99.90;;;;;;4990474;28;20207;-80
2020/12/17 09:48:13;;;;;;;40.97;20.33;;;9.50;99.90;;;;;;4991414;28;20209;-80
2020/12/17 09:50:51;;;;;;;38.77;21.23;;;9.10;99.90;;;;;;4988738;28;20214;-76
2020/12/17 09:53:19;;;;;;;38.77;21.23;;;9.30;99.90;;;;;;4981246;28;20208;-79
2020/12/17 09:55:46;;;;;;;28.07;17.90;;;9.40;99.90;;;;;;4991377;28;20295;-79
2020/12/17 09:58:12;;;;;;;37.50;17.90;;;9.50;99.90;;;;;;4986217;28;20247;-81
2020/12/17 10:00:39;;;;;;;35.83;16.80;;;9.30;99.90;;;;;;4980422;28;20220;-82
2020/12/17 10:03:06;;;;;;;43.83;19.90;;;9.60;99.90;;;;;;4989000;28;20736;-84
2020/12/17 10:05:33;;;;;;;33.30;19.43;;;9.50;99.90;;;;;;4989261;28;20237;-84
2020/12/17 10:07:59;;;;;;;46.17;20.47;;;9.60;99.90;;;;;;4990540;28;20251;-80
2020/12/17 10:10:26;;;;;;;44.60;19.43;;;9.70;99.90;;;;;;4989539;28;20606;-80
2020/12/17 10:12:52;;;;;;;38.17;19.33;;;9.70;99.90;;;;;;4990617;28;20267;-83
2020/12/17 10:15:19;;;;;;;28.67;18.33;;;9.90;99.90;;;;;;4989679;28;20209;-79
2020/12/17 10:17:45;;;;;;;37.60;18.33;;;10.00;99.90;;;;;;4989476;28;20719;-81
2020/12/17 10:20:13;;;;;;;34.03;18.27;;;9.40;99.90;;;;;;4988781;28;20220;-81
2020/12/17 10:22:39;;;;;;;35.03;17.77;;;9.80;99.90;;;;;;4990900;28;20221;-82
2020/12/17 10:25:05;;;;;;;37.00;19.50;;;10.10;99.90;;;;;;4990555;28;20595;-83
2020/12/17 10:27:33;;;;;;;29.63;18.00;;;10.10;99.90;;;;;;4990747;28;20307;-84
2020/12/17 10:30:00;;;;;;;41.43;19.23;;;10.30;99.90;;;;;;4991071;28;20215;-85
2020/12/17 10:32:26;;;;;;;34.80;19.13;;;9.70;99.90;;;;;;4991465;28;20242;-85
2020/12/17 10:34:53;;;;;;;41.70;21.53;;;9.40;99.90;;;;;;4991805;28;20240;-85
2020/12/17 10:37:20;;;;;;;42.40;20.13;;;9.20;99.90;;;;;;4991140;28;20212;-85
2020/12/17 10:39:46;;;;;;;42.87;21.13;;;9.40;99.90;;;;;;4991122;28;20209;-83
2020/12/17 10:42:13;;;;;;;41.27;22.13;;;9.60;99.90;;;;;;4991190;28;20205;-84
2020/12/17 10:44:39;;;;;;;38.60;21.23;;;9.80;99.90;;;;;;4991504;28;20574;-85
2020/12/17 10:47:06;;;;;;;38.53;19.93;;;9.90;99.90;;;;;;4990940;28;20268;-85
2020/12/17 10:49:33;;;;;;;38.70;18.80;;;9.60;99.90;;;;;;4990858;28;20288;-83
2020/12/17 10:51:59;;;;;;;32.47;17.80;;;9.70;99.90;;;;;;4990356;28;20622;-84
2020/12/17 10:54:28;;;;;;;33.23;18.87;;;9.60;99.90;;;;;;4991010;28;20249;-83
2020/12/17 10:56:54;;;;;;;33.27;19.27;;;9.60;99.90;;;;;;4991161;28;20212;-81
2020/12/17 10:59:21;;;;;;;35.83;20.03;;;9.60;99.90;;;;;;4991221;28;20286;-81
2020/12/17 11:01:47;;;;;;;29.63;17.43;;;10.00;99.90;;;;;;4991273;28;20240;-84
2020/12/17 11:04:14;;;;;;;29.17;16.80;;;9.90;99.90;;;;;;4990651;28;20209;-83
2020/12/17 11:06:40;;;;;;;35.70;19.50;;;9.70;99.90;;;;;;4984636;28;20237;-85
2020/12/17 11:09:06;;;;;;;34.07;19.93;;;9.60;99.90;;;;;;4990705;28;20215;-80
2020/12/17 11:11:34;;;;;;;31.97;18.87;;;9.60;99.90;;;;;;4991277;28;20209;-84
2020/12/17 11:14:00;;;;;;;30.97;18.47;;;9.70;99.90;;;;;;4990607;28;20205;-84
2020/12/17 11:16:27;;;;;;;34.87;19.53;;;10.00;99.90;;;;;;4991124;28;20215;-82
2020/12/17 11:18:54;;;;;;;27.73;19.80;;;10.30;99.90;;;;;;4994559;28;20215;-83
2020/12/17 11:21:22;;;;;;;38.30;18.73;;;10.10;99.90;;;;;;4994383;28;20205;-82
2020/12/17 11:23:48;;;;;;;30.23;18.27;;;9.90;99.90;;;;;;4993810;28;20212;-81
2020/12/17 11:26:15;;;;;;;31.13;17.23;;;9.90;99.90;;;;;;4982734;28;20241;-82
2020/12/17 11:28:42;;;;;;;30.67;17.10;;;10.10;99.90;;;;;;4994171;28;20219;-82
2020/12/17 11:31:09;;;;;;;29.83;18.43;;;10.20;99.90;;;;;;4993737;28;20213;-81
2020/12/17 11:33:35;;;;;;;36.20;22.60;;;10.00;99.90;;;;;;4993800;28;20212;-79
2020/12/17 11:36:04;;;;;;;35.87;21.13;;;10.10;99.90;;;;;;4993602;28;20217;-81
2020/12/17 11:38:30;;;;;;;31.60;18.50;;;10.20;99.90;;;;;;4994468;28;20664;-81
2020/12/17 11:40:57;;;;;;;34.27;20.97;;;10.20;99.90;;;;;;4993457;28;20687;-80
2020/12/17 11:43:23;;;;;;;35.00;21.27;;;10.00;99.90;;;;;;4994439;28;20260;-81
2020/12/17 11:45:50;;;;;;;41.83;23.97;;;10.00;99.90;;;;;;4993695;28;20212;-84
2020/12/17 11:48:17;;;;;;;33.37;20.57;;;10.20;99.90;;;;;;4993625;28;20205;-84
2020/12/17 11:50:43;;;;;;;39.80;23.17;;;10.20;99.90;;;;;;4994219;28;20237;-84
2020/12/17 11:53:10;;;;;;;37.10;23.33;;;10.40;99.90;;;;;;4993953;28;20213;-82
2020/12/17 11:55:36;;;;;;;36.80;21.20;;;10.30;99.90;;;;;;4995278;28;20616;-79
2020/12/17 11:58:03;;;;;;;40.03;22.47;;;10.30;99.90;;;;;;4994860;28;20208;-84
2020/12/17 12:00:29;;;;;;;33.33;21.13;;;10.40;99.90;;;;;;4993985;28;20240;-85
2020/12/17 12:02:56;;;;;;;34.23;20.43;;;10.60;99.90;;;;;;4994124;28;20216;-82
2020/12/17 12:05:23;;;;;;;42.67;27.17;;;10.50;99.90;;;;;;4994501;28;20220;-85
2020/12/17 12:07:50;;;;;;;36.27;23.30;;;10.70;99.90;;;;;;4994367;28;20272;-84
2020/12/17 12:10:16;;;;;;;37.80;22.77;;;10.60;99.90;;;;;;4993530;28;20889;-85
2020/12/17 12:12:43;;;;;;;36.00;22.33;;;10.50;99.90;;;;;;4994086;28;20213;-84
2020/12/17 12:15:09;;;;;;;41.10;25.70;;;10.30;99.90;;;;;;4993542;28;20212;-86
2020/12/17 12:17:36;;;;;;;32.97;22.33;;;10.00;99.90;;;;;;4991223;28;20236;-84
2020/12/17 12:20:03;;;;;;;33.33;21.47;;;10.10;99.90;;;;;;4993804;28;20264;-84
2020/12/17 12:22:30;;;;;;;31.67;19.50;;;10.20;99.90;;;;;;4993772;28;20216;-85
2020/12/17 12:24:57;;;;;;;42.53;29.57;;;10.20;99.90;;;;;;4993640;28;20299;-77
2020/12/17 12:27:23;;;;;;;43.63;24.17;;;10.30;99.90;;;;;;4993225;28;20239;-84
2020/12/17 12:29:49;;;;;;;34.17;22.90;;;10.30;99.90;;;;;;4993566;28;20220;-84
2020/12/17 12:32:16;;;;;;;34.73;21.77;;;10.50;99.90;;;;;;4993323;28;20209;-81
2020/12/17 12:34:43;;;;;;;35.33;21.30;;;10.50;99.90;;;;;;4993499;28;20209;-84
2020/12/17 12:37:10;;;;;;;32.70;20.20;;;10.40;99.90;;;;;;4993178;28;20295;-80
2020/12/17 12:39:36;;;;;;;33.73;20.90;;;10.50;99.90;;;;;;4988362;28;20205;-79